Terminal Aerodrome Forecast
Issued by NWS Green Bay, WI

Home | Current Version | Previous Version | Graphics & Text | Print | Product List | Glossary On
Versions: 1 2 3 4 5 6 7 8 9 10 11 12 13 14 15 16 17 18 19 20 21 22 23
000
FTUS43 KGRB 180932 AAB
TAFGRB
TAF AMD
KGRB 180932Z 1810/1906 04008KT P6SM SCT008
      TEMPO 1810/1814 4SM BR BKN008
     FM181500 07009KT P6SM BKN250
     FM182300 08007KT P6SM OVC100
     FM190100 08007KT P6SM OVC050 PROB30 1901/1906 -SHRA=

USA.gov is the U.S. government's official web portal to all federal, state and local government web resources and services.